sensor_id;sensor_type;location;lat;lon;timestamp;P1;durP1;ratioP1;P2;durP2;ratioP2
54983;SDS011;40884;53.562;9.940;2022-12-29T00:00:28;3.63;;;3.33;;
54983;SDS011;40884;53.562;9.940;2022-12-29T00:01:29;4.43;;;3.60;;
54983;SDS011;40884;53.562;9.940;2022-12-29T00:02:29;4.93;;;3.70;;
54983;SDS011;40884;53.562;9.940;2022-12-29T00:03:29;4.47;;;3.57;;
54983;SDS011;40884;53.562;9.940;2022-12-29T00:04:29;4.90;;;3.77;;
54983;SDS011;40884;53.562;9.940;2022-12-29T00:05:30;5.13;;;3.37;;
54983;SDS011;40884;53.562;9.940;2022-12-29T00:06:30;4.20;;;3.40;;
54983;SDS011;40884;53.562;9.940;2022-12-29T00:07:30;4.27;;;3.67;;
54983;SDS011;40884;53.562;9.940;2022-12-29T00:08:30;4.53;;;3.60;;
54983;SDS011;40884;53.562;9.940;2022-12-29T00:09:31;4.03;;;3.50;;
54983;SDS011;40884;53.562;9.940;2022-12-29T00:10:31;5.37;;;3.50;;
54983;SDS011;40884;53.562;9.940;2022-12-29T00:11:32;3.30;;;3.00;;
54983;SDS011;40884;53.562;9.940;2022-12-29T00:12:32;3.63;;;3.30;;
54983;SDS011;40884;53.562;9.940;2022-12-29T00:13:33;4.83;;;3.97;;
54983;SDS011;40884;53.562;9.940;2022-12-29T00:14:33;3.87;;;3.47;;
54983;SDS011;40884;53.562;9.940;2022-12-29T00:15:33;5.57;;;3.47;;
54983;SDS011;40884;53.562;9.940;2022-12-29T00:16:35;5.57;;;4.45;;
54983;SDS011;40884;53.562;9.940;2022-12-29T00:17:36;5.33;;;4.00;;
54983;SDS011;40884;53.562;9.940;2022-12-29T00:18:36;4.60;;;3.80;;
54983;SDS011;40884;53.562;9.940;2022-12-29T00:19:36;4.47;;;4.07;;
54983;SDS011;40884;53.562;9.940;2022-12-29T00:20:36;5.27;;;4.43;;
54983;SDS011;40884;53.562;9.940;2022-12-29T00:21:36;5.20;;;4.30;;
54983;SDS011;40884;53.562;9.940;2022-12-29T00:22:36;4.57;;;3.63;;
54983;SDS011;40884;53.562;9.940;2022-12-29T00:23:36;4.83;;;4.33;;
54983;SDS011;40884;53.562;9.940;2022-12-29T00:24:36;4.37;;;3.97;;
54983;SDS011;40884;53.562;9.940;2022-12-29T00:25:37;4.30;;;3.90;;
54983;SDS011;40884;53.562;9.940;2022-12-29T00:26:37;4.37;;;3.97;;
54983;SDS011;40884;53.562;9.940;2022-12-29T00:27:37;4.63;;;3.60;;
54983;SDS011;40884;53.562;9.940;2022-12-29T00:28:37;4.30;;;3.53;;
54983;SDS011;40884;53.562;9.940;2022-12-29T00:29:37;4.20;;;3.60;;
54983;SDS011;40884;53.562;9.940;2022-12-29T00:30:37;4.10;;;3.70;;
54983;SDS011;40884;53.562;9.940;2022-12-29T00:31:37;4.40;;;3.70;;
54983;SDS011;40884;53.562;9.940;2022-12-29T00:32:37;3.70;;;3.40;;
54983;SDS011;40884;53.562;9.940;2022-12-29T00:33:38;4.97;;;3.70;;
54983;SDS011;40884;53.562;9.940;2022-12-29T00:34:38;4.77;;;4.07;;
54983;SDS011;40884;53.562;9.940;2022-12-29T00:35:38;5.97;;;3.90;;
54983;SDS011;40884;53.562;9.940;2022-12-29T00:36:41;4.73;;;4.10;;
54983;SDS011;40884;53.562;9.940;2022-12-29T00:37:43;4.77;;;4.30;;
54983;SDS011;40884;53.562;9.940;2022-12-29T00:38:51;4.97;;;3.83;;
54983;SDS011;40884;53.562;9.940;2022-12-29T00:39:52;5.37;;;4.00;;
54983;SDS011;40884;53.562;9.940;2022-12-29T00:40:52;4.17;;;3.77;;
54983;SDS011;40884;53.562;9.940;2022-12-29T00:41:54;4.70;;;3.70;;
54983;SDS011;40884;53.562;9.940;2022-12-29T00:42:55;3.97;;;3.57;;
54983;SDS011;40884;53.562;9.940;2022-12-29T00:43:55;5.00;;;4.17;;
54983;SDS011;40884;53.562;9.940;2022-12-29T00:44:55;4.43;;;3.70;;
54983;SDS011;40884;53.562;9.940;2022-12-29T00:45:55;5.73;;;4.23;;
54983;SDS011;40884;53.562;9.940;2022-12-29T00:46:55;4.67;;;3.70;;
54983;SDS011;40884;53.562;9.940;2022-12-29T00:47:55;3.97;;;3.57;;
54983;SDS011;40884;53.562;9.940;2022-12-29T00:48:55;4.27;;;3.60;;
54983;SDS011;40884;53.562;9.940;2022-12-29T00:49:56;4.67;;;4.13;;
54983;SDS011;40884;53.562;9.940;2022-12-29T00:50:56;5.63;;;4.00;;
54983;SDS011;40884;53.562;9.940;2022-12-29T00:51:57;5.57;;;4.30;;
54983;SDS011;40884;53.562;9.940;2022-12-29T00:52:57;4.40;;;3.83;;
54983;SDS011;40884;53.562;9.940;2022-12-29T00:53:57;5.77;;;4.00;;
54983;SDS011;40884;53.562;9.940;2022-12-29T00:54:58;4.40;;;3.87;;
54983;SDS011;40884;53.562;9.940;2022-12-29T00:55:58;6.00;;;4.03;;
54983;SDS011;40884;53.562;9.940;2022-12-29T00:56:58;4.67;;;3.60;;
54983;SDS011;40884;53.562;9.940;2022-12-29T00:57:59;6.13;;;4.10;;
54983;SDS011;40884;53.562;9.940;2022-12-29T00:58:59;5.23;;;4.30;;
54983;SDS011;40884;53.562;9.940;2022-12-29T01:00:01;5.17;;;4.00;;
54983;SDS011;40884;53.562;9.940;2022-12-29T01:01:04;5.03;;;3.93;;
54983;SDS011;40884;53.562;9.940;2022-12-29T01:02:04;4.90;;;3.60;;
54983;SDS011;40884;53.562;9.940;2022-12-29T01:03:05;5.20;;;4.23;;
54983;SDS011;40884;53.562;9.940;2022-12-29T01:04:07;6.03;;;4.03;;
54983;SDS011;40884;53.562;9.940;2022-12-29T01:05:08;5.13;;;3.90;;
54983;SDS011;40884;53.562;9.940;2022-12-29T01:06:09;5.33;;;4.30;;
54983;SDS011;40884;53.562;9.940;2022-12-29T01:07:11;4.37;;;3.97;;
54983;SDS011;40884;53.562;9.940;2022-12-29T01:08:11;4.40;;;4.00;;
54983;SDS011;40884;53.562;9.940;2022-12-29T01:09:11;5.17;;;4.33;;
54983;SDS011;40884;53.562;9.940;2022-12-29T01:10:11;5.40;;;4.40;;
54983;SDS011;40884;53.562;9.940;2022-12-29T01:11:12;7.03;;;4.50;;
54983;SDS011;40884;53.562;9.940;2022-12-29T01:12:12;5.67;;;4.60;;
54983;SDS011;40884;53.562;9.940;2022-12-29T01:13:13;4.73;;;4.20;;
54983;SDS011;40884;53.562;9.940;2022-12-29T01:14:13;5.37;;;3.63;;
54983;SDS011;40884;53.562;9.940;2022-12-29T01:15:14;3.73;;;3.43;;
54983;SDS011;40884;53.562;9.940;2022-12-29T01:16:15;4.10;;;3.70;;
54983;SDS011;40884;53.562;9.940;2022-12-29T01:17:15;3.90;;;3.50;;
54983;SDS011;40884;53.562;9.940;2022-12-29T01:18:15;4.23;;;3.70;;
54983;SDS011;40884;53.562;9.940;2022-12-29T01:19:16;4.17;;;3.60;;
54983;SDS011;40884;53.562;9.940;2022-12-29T01:20:17;4.20;;;3.80;;
54983;SDS011;40884;53.562;9.940;2022-12-29T01:21:17;5.90;;;3.00;;
54983;SDS011;40884;53.562;9.940;2022-12-29T01:22:17;4.47;;;2.83;;
54983;SDS011;40884;53.562;9.940;2022-12-29T01:23:17;4.63;;;2.97;;
54983;SDS011;40884;53.562;9.940;2022-12-29T01:24:19;3.37;;;2.10;;
54983;SDS011;40884;53.562;9.940;2022-12-29T01:25:20;4.23;;;3.83;;
54983;SDS011;40884;53.562;9.940;2022-12-29T01:26:20;2.80;;;2.20;;
54983;SDS011;40884;53.562;9.940;2022-12-29T01:27:20;4.27;;;2.37;;
54983;SDS011;40884;53.562;9.940;2022-12-29T01:28:21;2.30;;;2.10;;
54983;SDS011;40884;53.562;9.940;2022-12-29T01:29:21;3.73;;;2.40;;
54983;SDS011;40884;53.562;9.940;2022-12-29T01:30:21;1.90;;;1.80;;
54983;SDS011;40884;53.562;9.940;2022-12-29T01:31:21;2.53;;;2.27;;
54983;SDS011;40884;53.562;9.940;2022-12-29T01:32:22;2.80;;;1.90;;
54983;SDS011;40884;53.562;9.940;2022-12-29T01:33:22;2.20;;;1.90;;
54983;SDS011;40884;53.562;9.940;2022-12-29T01:34:22;2.50;;;2.30;;
54983;SDS011;40884;53.562;9.940;2022-12-29T01:35:22;2.50;;;1.97;;
54983;SDS011;40884;53.562;9.940;2022-12-29T01:36:23;2.77;;;1.83;;
54983;SDS011;40884;53.562;9.940;2022-12-29T01:37:23;2.93;;;1.90;;
54983;SDS011;40884;53.562;9.940;2022-12-29T01:38:23;3.37;;;1.73;;
54983;SDS011;40884;53.562;9.940;2022-12-29T01:39:24;2.97;;;1.80;;
54983;SDS011;40884;53.562;9.940;2022-12-29T01:40:24;3.13;;;1.57;;
54983;SDS011;40884;53.562;9.940;2022-12-29T01:41:25;2.40;;;1.73;;
54983;SDS011;40884;53.562;9.940;2022-12-29T01:42:26;2.07;;;1.60;;
54983;SDS011;40884;53.562;9.940;2022-12-29T01:43:39;1.90;;;1.70;;
54983;SDS011;40884;53.562;9.940;2022-12-29T01:45:48;1.87;;;1.43;;
54983;SDS011;40884;53.562;9.940;2022-12-29T01:46:50;2.37;;;1.60;;
54983;SDS011;40884;53.562;9.940;2022-12-29T01:47:54;2.63;;;1.97;;
54983;SDS011;40884;53.562;9.940;2022-12-29T01:48:57;2.70;;;1.80;;
54983;SDS011;40884;53.562;9.940;2022-12-29T01:50:01;2.33;;;2.13;;
54983;SDS011;40884;53.562;9.940;2022-12-29T01:51:02;2.20;;;2.00;;
54983;SDS011;40884;53.562;9.940;2022-12-29T01:52:04;1.83;;;1.73;;
54983;SDS011;40884;53.562;9.940;2022-12-29T01:53:09;1.80;;;1.70;;
54983;SDS011;40884;53.562;9.940;2022-12-29T01:54:11;2.50;;;2.27;;
54983;SDS011;40884;53.562;9.940;2022-12-29T01:55:13;1.93;;;1.77;;
54983;SDS011;40884;53.562;9.940;2022-12-29T01:56:14;2.90;;;1.77;;
54983;SDS011;40884;53.562;9.940;2022-12-29T01:57:20;2.50;;;1.77;;
54983;SDS011;40884;53.562;9.940;2022-12-29T01:58:22;2.67;;;2.13;;
54983;SDS011;40884;53.562;9.940;2022-12-29T01:59:24;3.40;;;2.20;;
54983;SDS011;40884;53.562;9.940;2022-12-29T02:00:27;2.80;;;1.93;;
54983;SDS011;40884;53.562;9.940;2022-12-29T02:01:27;2.70;;;2.00;;
54983;SDS011;40884;53.562;9.940;2022-12-29T02:02:27;1.43;;;1.33;;
54983;SDS011;40884;53.562;9.940;2022-12-29T02:03:28;3.10;;;1.60;;
54983;SDS011;40884;53.562;9.940;2022-12-29T02:04:29;2.43;;;1.90;;
54983;SDS011;40884;53.562;9.940;2022-12-29T02:05:35;1.27;;;1.17;;
54983;SDS011;40884;53.562;9.940;2022-12-29T02:06:48;2.60;;;1.67;;
54983;SDS011;40884;53.562;9.940;2022-12-29T02:07:50;2.70;;;1.67;;
54983;SDS011;40884;53.562;9.940;2022-12-29T02:08:52;2.80;;;2.03;;
54983;SDS011;40884;53.562;9.940;2022-12-29T02:09:55;3.00;;;2.70;;
54983;SDS011;40884;53.562;9.940;2022-12-29T02:10:56;3.57;;;3.10;;
54983;SDS011;40884;53.562;9.940;2022-12-29T02:11:58;4.13;;;3.07;;
54983;SDS011;40884;53.562;9.940;2022-12-29T02:12:58;4.00;;;3.60;;
54983;SDS011;40884;53.562;9.940;2022-12-29T02:13:58;4.67;;;3.50;;
54983;SDS011;40884;53.562;9.940;2022-12-29T02:15:00;4.10;;;3.70;;
54983;SDS011;40884;53.562;9.940;2022-12-29T02:18:38;3.40;;;3.10;;
54983;SDS011;40884;53.562;9.940;2022-12-29T02:20:54;4.20;;;3.80;;
54983;SDS011;40884;53.562;9.940;2022-12-29T02:22:07;4.23;;;3.90;;
54983;SDS011;40884;53.562;9.940;2022-12-29T02:29:09;4.47;;;3.30;;
54983;SDS011;40884;53.562;9.940;2022-12-29T02:31:27;3.37;;;3.07;;
54983;SDS011;40884;53.562;9.940;2022-12-29T02:32:45;3.63;;;3.03;;
54983;SDS011;40884;53.562;9.940;2022-12-29T02:35:08;5.13;;;2.90;;
54983;SDS011;40884;53.562;9.940;2022-12-29T02:37:23;3.30;;;3.10;;
54983;SDS011;40884;53.562;9.940;2022-12-29T02:38:34;3.30;;;3.00;;
54983;SDS011;40884;53.562;9.940;2022-12-29T02:39:40;3.40;;;3.10;;
54983;SDS011;40884;53.562;9.940;2022-12-29T02:42:07;3.53;;;3.23;;
54983;SDS011;40884;53.562;9.940;2022-12-29T02:43:14;3.40;;;3.10;;
54983;SDS011;40884;53.562;9.940;2022-12-29T02:44:39;3.67;;;3.23;;
54983;SDS011;40884;53.562;9.940;2022-12-29T02:46:51;3.63;;;2.80;;
54983;SDS011;40884;53.562;9.940;2022-12-29T02:48:58;5.97;;;3.70;;
54983;SDS011;40884;53.562;9.940;2022-12-29T02:50:02;3.40;;;3.10;;
54983;SDS011;40884;53.562;9.940;2022-12-29T02:51:04;4.83;;;3.20;;
54983;SDS011;40884;53.562;9.940;2022-12-29T02:52:07;3.70;;;3.40;;
54983;SDS011;40884;53.562;9.940;2022-12-29T02:53:13;3.60;;;3.30;;
54983;SDS011;40884;53.562;9.940;2022-12-29T02:54:16;3.77;;;3.27;;
54983;SDS011;40884;53.562;9.940;2022-12-29T02:55:16;3.23;;;3.00;;
54983;SDS011;40884;53.562;9.940;2022-12-29T02:56:17;3.73;;;3.40;;
54983;SDS011;40884;53.562;9.940;2022-12-29T02:58:21;3.73;;;3.43;;
54983;SDS011;40884;53.562;9.940;2022-12-29T02:59:23;3.50;;;3.20;;
54983;SDS011;40884;53.562;9.940;2022-12-29T03:00:23;4.83;;;2.97;;
54983;SDS011;40884;53.562;9.940;2022-12-29T03:02:29;3.87;;;3.50;;
54983;SDS011;40884;53.562;9.940;2022-12-29T03:04:58;3.70;;;3.40;;
54983;SDS011;40884;53.562;9.940;2022-12-29T03:06:11;4.00;;;3.70;;
54983;SDS011;40884;53.562;9.940;2022-12-29T03:07:18;3.80;;;3.50;;
54983;SDS011;40884;53.562;9.940;2022-12-29T03:08:23;4.17;;;3.70;;
54983;SDS011;40884;53.562;9.940;2022-12-29T03:09:27;3.97;;;3.57;;
54983;SDS011;40884;53.562;9.940;2022-12-29T03:10:30;4.00;;;3.60;;
54983;SDS011;40884;53.562;9.940;2022-12-29T03:11:38;6.00;;;4.10;;
54983;SDS011;40884;53.562;9.940;2022-12-29T03:12:42;3.77;;;3.47;;
54983;SDS011;40884;53.562;9.940;2022-12-29T03:13:49;4.07;;;3.67;;
54983;SDS011;40884;53.562;9.940;2022-12-29T03:15:00;3.83;;;3.53;;
54983;SDS011;40884;53.562;9.940;2022-12-29T03:16:12;3.57;;;3.10;;
54983;SDS011;40884;53.562;9.940;2022-12-29T03:17:18;5.18;;;3.50;;
54983;SDS011;40884;53.562;9.940;2022-12-29T03:18:24;4.33;;;3.43;;
54983;SDS011;40884;53.562;9.940;2022-12-29T03:19:30;3.83;;;3.43;;
54983;SDS011;40884;53.562;9.940;2022-12-29T03:20:36;3.77;;;3.47;;
54983;SDS011;40884;53.562;9.940;2022-12-29T03:21:42;3.97;;;3.43;;
54983;SDS011;40884;53.562;9.940;2022-12-29T03:22:44;4.82;;;3.40;;
54983;SDS011;40884;53.562;9.940;2022-12-29T03:23:51;4.77;;;3.33;;
54983;SDS011;40884;53.562;9.940;2022-12-29T03:24:52;3.60;;;3.20;;
54983;SDS011;40884;53.562;9.940;2022-12-29T03:25:55;3.63;;;3.30;;
54983;SDS011;40884;53.562;9.940;2022-12-29T03:26:56;3.80;;;3.07;;
54983;SDS011;40884;53.562;9.940;2022-12-29T03:28:06;3.70;;;3.40;;
54983;SDS011;40884;53.562;9.940;2022-12-29T03:29:12;3.38;;;3.08;;
54983;SDS011;40884;53.562;9.940;2022-12-29T03:30:13;5.47;;;3.30;;
54983;SDS011;40884;53.562;9.940;2022-12-29T03:31:13;3.63;;;3.00;;
54983;SDS011;40884;53.562;9.940;2022-12-29T03:32:14;4.07;;;3.20;;
54983;SDS011;40884;53.562;9.940;2022-12-29T03:33:16;3.83;;;2.90;;
54983;SDS011;40884;53.562;9.940;2022-12-29T03:34:17;3.37;;;2.80;;
54983;SDS011;40884;53.562;9.940;2022-12-29T03:35:20;3.20;;;2.97;;
54983;SDS011;40884;53.562;9.940;2022-12-29T03:36:26;3.10;;;2.70;;
54983;SDS011;40884;53.562;9.940;2022-12-29T03:37:34;3.97;;;3.20;;
54983;SDS011;40884;53.562;9.940;2022-12-29T03:38:44;6.00;;;3.05;;
54983;SDS011;40884;53.562;9.940;2022-12-29T03:39:45;3.67;;;3.00;;
54983;SDS011;40884;53.562;9.940;2022-12-29T03:40:48;4.30;;;3.30;;
54983;SDS011;40884;53.562;9.940;2022-12-29T03:41:50;4.43;;;3.10;;
54983;SDS011;40884;53.562;9.940;2022-12-29T03:42:51;3.58;;;2.90;;
54983;SDS011;40884;53.562;9.940;2022-12-29T03:43:53;3.60;;;3.30;;
54983;SDS011;40884;53.562;9.940;2022-12-29T03:44:54;3.57;;;3.20;;
54983;SDS011;40884;53.562;9.940;2022-12-29T03:45:54;4.10;;;2.97;;
54983;SDS011;40884;53.562;9.940;2022-12-29T03:46:54;3.13;;;2.83;;
54983;SDS011;40884;53.562;9.940;2022-12-29T03:47:55;3.60;;;2.97;;
54983;SDS011;40884;53.562;9.940;2022-12-29T03:48:55;3.37;;;3.07;;
54983;SDS011;40884;53.562;9.940;2022-12-29T03:49:55;3.50;;;2.93;;
54983;SDS011;40884;53.562;9.940;2022-12-29T03:50:55;2.97;;;2.63;;
54983;SDS011;40884;53.562;9.940;2022-12-29T03:51:56;3.00;;;2.70;;
54983;SDS011;40884;53.562;9.940;2022-12-29T03:52:57;3.00;;;2.70;;
54983;SDS011;40884;53.562;9.940;2022-12-29T03:53:59;2.90;;;2.63;;
54983;SDS011;40884;53.562;9.940;2022-12-29T03:54:59;3.50;;;3.20;;
54983;SDS011;40884;53.562;9.940;2022-12-29T03:55:59;3.27;;;2.97;;
54983;SDS011;40884;53.562;9.940;2022-12-29T03:57:00;3.10;;;2.80;;
54983;SDS011;40884;53.562;9.940;2022-12-29T03:58:12;2.97;;;2.77;;
54983;SDS011;40884;53.562;9.940;2022-12-29T03:59:32;3.43;;;2.80;;
54983;SDS011;40884;53.562;9.940;2022-12-29T04:00:32;2.63;;;2.43;;
54983;SDS011;40884;53.562;9.940;2022-12-29T04:01:33;2.77;;;2.57;;
54983;SDS011;40884;53.562;9.940;2022-12-29T04:02:33;3.60;;;3.30;;
54983;SDS011;40884;53.562;9.940;2022-12-29T04:03:33;3.17;;;2.77;;
54983;SDS011;40884;53.562;9.940;2022-12-29T04:04:33;3.50;;;2.60;;
54983;SDS011;40884;53.562;9.940;2022-12-29T04:05:33;2.63;;;2.43;;
54983;SDS011;40884;53.562;9.940;2022-12-29T04:06:33;2.53;;;2.33;;
54983;SDS011;40884;53.562;9.940;2022-12-29T04:07:37;4.57;;;2.70;;
54983;SDS011;40884;53.562;9.940;2022-12-29T04:08:38;2.83;;;2.40;;
54983;SDS011;40884;53.562;9.940;2022-12-29T04:09:39;2.60;;;2.40;;
54983;SDS011;40884;53.562;9.940;2022-12-29T04:10:42;4.23;;;2.43;;
54983;SDS011;40884;53.562;9.940;2022-12-29T04:11:42;2.90;;;2.33;;
54983;SDS011;40884;53.562;9.940;2022-12-29T04:12:42;2.53;;;2.33;;
54983;SDS011;40884;53.562;9.940;2022-12-29T04:13:42;2.50;;;2.30;;
54983;SDS011;40884;53.562;9.940;2022-12-29T04:14:45;1.90;;;1.80;;
54983;SDS011;40884;53.562;9.940;2022-12-29T04:15:45;2.20;;;2.00;;
54983;SDS011;40884;53.562;9.940;2022-12-29T04:16:46;2.40;;;2.20;;
54983;SDS011;40884;53.562;9.940;2022-12-29T04:17:46;2.60;;;2.10;;
54983;SDS011;40884;53.562;9.940;2022-12-29T04:18:46;2.70;;;2.30;;
54983;SDS011;40884;53.562;9.940;2022-12-29T04:19:46;2.20;;;2.00;;
54983;SDS011;40884;53.562;9.940;2022-12-29T04:20:46;2.23;;;2.03;;
54983;SDS011;40884;53.562;9.940;2022-12-29T04:21:47;2.63;;;2.10;;
54983;SDS011;40884;53.562;9.940;2022-12-29T04:22:47;2.33;;;1.70;;
54983;SDS011;40884;53.562;9.940;2022-12-29T04:23:47;3.30;;;1.90;;
54983;SDS011;40884;53.562;9.940;2022-12-29T04:24:49;1.93;;;1.70;;
54983;SDS011;40884;53.562;9.940;2022-12-29T04:25:49;3.30;;;2.10;;
54983;SDS011;40884;53.562;9.940;2022-12-29T04:26:49;2.77;;;2.00;;
54983;SDS011;40884;53.562;9.940;2022-12-29T04:28:08;3.10;;;2.00;;
54983;SDS011;40884;53.562;9.940;2022-12-29T04:29:31;2.70;;;1.70;;
54983;SDS011;40884;53.562;9.940;2022-12-29T04:31:04;1.77;;;1.67;;
54983;SDS011;40884;53.562;9.940;2022-12-29T04:32:09;2.17;;;1.80;;
54983;SDS011;40884;53.562;9.940;2022-12-29T04:33:13;1.80;;;1.70;;
54983;SDS011;40884;53.562;9.940;2022-12-29T04:34:15;2.37;;;1.50;;
54983;SDS011;40884;53.562;9.940;2022-12-29T04:35:16;1.63;;;1.40;;
54983;SDS011;40884;53.562;9.940;2022-12-29T04:36:16;1.70;;;1.60;;
54983;SDS011;40884;53.562;9.940;2022-12-29T04:37:17;1.73;;;1.63;;
54983;SDS011;40884;53.562;9.940;2022-12-29T04:38:17;2.47;;;1.40;;
54983;SDS011;40884;53.562;9.940;2022-12-29T04:39:17;1.67;;;1.57;;
54983;SDS011;40884;53.562;9.940;2022-12-29T04:40:18;2.00;;;1.53;;
54983;SDS011;40884;53.562;9.940;2022-12-29T04:41:18;3.03;;;1.67;;
54983;SDS011;40884;53.562;9.940;2022-12-29T04:42:18;1.83;;;1.37;;
54983;SDS011;40884;53.562;9.940;2022-12-29T04:43:18;1.93;;;1.63;;
54983;SDS011;40884;53.562;9.940;2022-12-29T04:44:41;2.70;;;1.70;;
54983;SDS011;40884;53.562;9.940;2022-12-29T04:45:48;1.67;;;1.57;;
54983;SDS011;40884;53.562;9.940;2022-12-29T04:47:11;2.10;;;1.73;;
54983;SDS011;40884;53.562;9.940;2022-12-29T04:48:30;2.10;;;1.60;;
54983;SDS011;40884;53.562;9.940;2022-12-29T04:49:44;1.47;;;1.37;;
54983;SDS011;40884;53.562;9.940;2022-12-29T04:51:04;1.80;;;1.70;;
54983;SDS011;40884;53.562;9.940;2022-12-29T04:52:10;1.83;;;1.40;;
54983;SDS011;40884;53.562;9.940;2022-12-29T04:53:11;1.47;;;1.20;;
54983;SDS011;40884;53.562;9.940;2022-12-29T04:54:11;1.60;;;1.47;;
54983;SDS011;40884;53.562;9.940;2022-12-29T04:55:12;1.67;;;1.57;;
54983;SDS011;40884;53.562;9.940;2022-12-29T04:56:15;2.10;;;1.47;;
54983;SDS011;40884;53.562;9.940;2022-12-29T04:57:16;1.50;;;1.30;;
54983;SDS011;40884;53.562;9.940;2022-12-29T04:58:21;1.50;;;1.40;;
54983;SDS011;40884;53.562;9.940;2022-12-29T04:59:21;1.80;;;1.27;;
54983;SDS011;40884;53.562;9.940;2022-12-29T05:00:24;2.40;;;1.30;;
54983;SDS011;40884;53.562;9.940;2022-12-29T05:01:24;2.00;;;1.60;;
54983;SDS011;40884;53.562;9.940;2022-12-29T05:02:24;1.73;;;1.33;;
54983;SDS011;40884;53.562;9.940;2022-12-29T05:03:25;1.57;;;1.47;;
54983;SDS011;40884;53.562;9.940;2022-12-29T05:04:25;1.50;;;1.40;;
54983;SDS011;40884;53.562;9.940;2022-12-29T05:05:26;1.40;;;1.30;;
54983;SDS011;40884;53.562;9.940;2022-12-29T05:06:26;2.80;;;1.40;;
54983;SDS011;40884;53.562;9.940;2022-12-29T05:07:26;2.07;;;1.37;;
54983;SDS011;40884;53.562;9.940;2022-12-29T05:08:28;1.30;;;1.20;;
54983;SDS011;40884;53.562;9.940;2022-12-29T05:09:28;1.57;;;1.30;;
54983;SDS011;40884;53.562;9.940;2022-12-29T05:10:29;1.97;;;1.47;;
54983;SDS011;40884;53.562;9.940;2022-12-29T05:11:32;1.80;;;1.50;;
54983;SDS011;40884;53.562;9.940;2022-12-29T05:12:33;1.60;;;1.50;;
54983;SDS011;40884;53.562;9.940;2022-12-29T05:13:35;2.23;;;1.60;;
54983;SDS011;40884;53.562;9.940;2022-12-29T05:14:36;1.40;;;1.30;;
54983;SDS011;40884;53.562;9.940;2022-12-29T05:15:37;1.40;;;1.30;;
54983;SDS011;40884;53.562;9.940;2022-12-29T05:16:37;1.60;;;1.50;;
54983;SDS011;40884;53.562;9.940;2022-12-29T05:17:38;1.60;;;1.50;;
54983;SDS011;40884;53.562;9.940;2022-12-29T05:18:39;1.60;;;1.50;;
54983;SDS011;40884;53.562;9.940;2022-12-29T05:19:41;2.10;;;1.50;;
54983;SDS011;40884;53.562;9.940;2022-12-29T05:20:42;2.00;;;1.50;;
54983;SDS011;40884;53.562;9.940;2022-12-29T05:21:42;1.80;;;1.50;;
54983;SDS011;40884;53.562;9.940;2022-12-29T05:22:42;1.70;;;1.60;;
54983;SDS011;40884;53.562;9.940;2022-12-29T05:23:42;1.60;;;1.50;;
54983;SDS011;40884;53.562;9.940;2022-12-29T05:24:43;1.50;;;1.40;;
54983;SDS011;40884;53.562;9.940;2022-12-29T05:25:44;2.40;;;1.70;;
54983;SDS011;40884;53.562;9.940;2022-12-29T05:26:50;1.50;;;1.40;;
54983;SDS011;40884;53.562;9.940;2022-12-29T05:28:26;1.83;;;1.73;;
54983;SDS011;40884;53.562;9.940;2022-12-29T05:29:31;2.67;;;2.03;;
54983;SDS011;40884;53.562;9.940;2022-12-29T05:30:32;2.00;;;1.80;;
54983;SDS011;40884;53.562;9.940;2022-12-29T05:31:32;3.20;;;2.80;;
54983;SDS011;40884;53.562;9.940;2022-12-29T05:32:32;6.73;;;4.97;;
54983;SDS011;40884;53.562;9.940;2022-12-29T05:33:32;9.67;;;8.80;;
54983;SDS011;40884;53.562;9.940;2022-12-29T05:34:33;3.63;;;3.33;;
54983;SDS011;40884;53.562;9.940;2022-12-29T05:35:34;3.87;;;2.40;;
54983;SDS011;40884;53.562;9.940;2022-12-29T05:36:34;3.20;;;2.20;;
54983;SDS011;40884;53.562;9.940;2022-12-29T05:37:36;2.20;;;2.10;;
54983;SDS011;40884;53.562;9.940;2022-12-29T05:38:36;1.80;;;1.63;;
54983;SDS011;40884;53.562;9.940;2022-12-29T05:39:36;4.87;;;1.97;;
54983;SDS011;40884;53.562;9.940;2022-12-29T05:40:38;2.10;;;1.90;;
54983;SDS011;40884;53.562;9.940;2022-12-29T05:41:47;2.43;;;1.90;;
54983;SDS011;40884;53.562;9.940;2022-12-29T05:42:49;3.00;;;2.70;;
54983;SDS011;40884;53.562;9.940;2022-12-29T05:44:09;3.57;;;3.13;;
54983;SDS011;40884;53.562;9.940;2022-12-29T05:45:18;3.70;;;3.27;;
54983;SDS011;40884;53.562;9.940;2022-12-29T05:46:36;3.50;;;3.20;;
54983;SDS011;40884;53.562;9.940;2022-12-29T05:47:52;4.10;;;3.07;;
54983;SDS011;40884;53.562;9.940;2022-12-29T05:49:18;2.87;;;2.17;;
54983;SDS011;40884;53.562;9.940;2022-12-29T05:50:37;2.70;;;2.30;;
54983;SDS011;40884;53.562;9.940;2022-12-29T05:52:00;2.97;;;1.80;;
54983;SDS011;40884;53.562;9.940;2022-12-29T05:53:02;1.63;;;1.53;;
54983;SDS011;40884;53.562;9.940;2022-12-29T05:54:02;1.60;;;1.50;;
54983;SDS011;40884;53.562;9.940;2022-12-29T05:55:02;2.10;;;1.50;;
54983;SDS011;40884;53.562;9.940;2022-12-29T05:56:04;1.70;;;1.60;;
54983;SDS011;40884;53.562;9.940;2022-12-29T05:57:05;1.77;;;1.43;;
54983;SDS011;40884;53.562;9.940;2022-12-29T05:58:06;1.50;;;1.40;;
54983;SDS011;40884;53.562;9.940;2022-12-29T05:59:07;1.50;;;1.40;;
54983;SDS011;40884;53.562;9.940;2022-12-29T06:00:07;1.53;;;1.27;;
54983;SDS011;40884;53.562;9.940;2022-12-29T06:01:14;1.47;;;1.37;;
54983;SDS011;40884;53.562;9.940;2022-12-29T06:02:15;1.40;;;1.30;;
54983;SDS011;40884;53.562;9.940;2022-12-29T06:03:16;1.33;;;1.23;;
54983;SDS011;40884;53.562;9.940;2022-12-29T06:04:16;1.40;;;1.30;;
54983;SDS011;40884;53.562;9.940;2022-12-29T06:05:16;1.40;;;1.30;;
54983;SDS011;40884;53.562;9.940;2022-12-29T06:06:16;1.53;;;1.30;;
54983;SDS011;40884;53.562;9.940;2022-12-29T06:07:17;2.80;;;1.70;;
54983;SDS011;40884;53.562;9.940;2022-12-29T06:08:19;2.90;;;1.10;;
54983;SDS011;40884;53.562;9.940;2022-12-29T06:09:21;1.93;;;1.00;;
54983;SDS011;40884;53.562;9.940;2022-12-29T06:10:21;1.10;;;1.00;;
54983;SDS011;40884;53.562;9.940;2022-12-29T06:11:27;1.07;;;0.90;;
54983;SDS011;40884;53.562;9.940;2022-12-29T06:12:30;3.70;;;1.33;;
54983;SDS011;40884;53.562;9.940;2022-12-29T06:13:30;1.70;;;1.30;;
54983;SDS011;40884;53.562;9.940;2022-12-29T06:14:31;2.53;;;1.10;;
54983;SDS011;40884;53.562;9.940;2022-12-29T06:15:32;1.50;;;1.40;;
54983;SDS011;40884;53.562;9.940;2022-12-29T06:16:33;1.20;;;1.10;;
54983;SDS011;40884;53.562;9.940;2022-12-29T06:17:35;1.50;;;1.40;;
54983;SDS011;40884;53.562;9.940;2022-12-29T06:18:35;1.53;;;1.20;;
54983;SDS011;40884;53.562;9.940;2022-12-29T06:19:36;2.00;;;1.33;;
54983;SDS011;40884;53.562;9.940;2022-12-29T06:20:36;1.60;;;1.40;;
54983;SDS011;40884;53.562;9.940;2022-12-29T06:21:38;1.87;;;1.30;;
54983;SDS011;40884;53.562;9.940;2022-12-29T06:22:38;2.73;;;1.20;;
54983;SDS011;40884;53.562;9.940;2022-12-29T06:23:39;2.07;;;1.40;;
54983;SDS011;40884;53.562;9.940;2022-12-29T06:24:39;1.43;;;1.17;;
54983;SDS011;40884;53.562;9.940;2022-12-29T06:25:39;2.27;;;1.30;;
54983;SDS011;40884;53.562;9.940;2022-12-29T06:26:40;1.93;;;1.40;;
54983;SDS011;40884;53.562;9.940;2022-12-29T06:27:40;1.50;;;1.40;;
54983;SDS011;40884;53.562;9.940;2022-12-29T06:28:40;1.93;;;1.40;;
54983;SDS011;40884;53.562;9.940;2022-12-29T06:29:40;1.67;;;1.50;;
54983;SDS011;40884;53.562;9.940;2022-12-29T06:30:43;1.60;;;1.50;;
54983;SDS011;40884;53.562;9.940;2022-12-29T06:31:43;1.57;;;1.33;;
54983;SDS011;40884;53.562;9.940;2022-12-29T06:32:44;1.23;;;1.13;;
54983;SDS011;40884;53.562;9.940;2022-12-29T06:33:46;1.57;;;1.47;;
54983;SDS011;40884;53.562;9.940;2022-12-29T06:34:46;3.07;;;2.83;;
54983;SDS011;40884;53.562;9.940;2022-12-29T06:35:47;8.90;;;8.10;;
54983;SDS011;40884;53.562;9.940;2022-12-29T06:36:48;4.33;;;4.00;;
54983;SDS011;40884;53.562;9.940;2022-12-29T06:37:48;3.33;;;3.03;;
54983;SDS011;40884;53.562;9.940;2022-12-29T06:38:48;2.57;;;2.17;;
54983;SDS011;40884;53.562;9.940;2022-12-29T06:39:48;2.80;;;1.63;;